sensor_id;sensor_type;location;lat;lon;timestamp;P1;durP1;ratioP1;P2;durP2;ratioP2
18090;SDS011;9172;49.948;9.208;2023-06-26T00:02:06;6.77;;;2.80;;
18090;SDS011;9172;49.948;9.208;2023-06-26T00:04:36;4.60;;;3.00;;
18090;SDS011;9172;49.948;9.208;2023-06-26T00:07:04;4.27;;;3.20;;
18090;SDS011;9172;49.948;9.208;2023-06-26T00:09:34;5.40;;;3.40;;
18090;SDS011;9172;49.948;9.208;2023-06-26T00:12:03;5.90;;;3.47;;
18090;SDS011;9172;49.948;9.208;2023-06-26T00:14:32;4.73;;;3.50;;
18090;SDS011;9172;49.948;9.208;2023-06-26T00:17:01;3.97;;;3.23;;
18090;SDS011;9172;49.948;9.208;2023-06-26T00:19:29;4.73;;;3.27;;
18090;SDS011;9172;49.948;9.208;2023-06-26T00:21:59;5.33;;;3.17;;
18090;SDS011;9172;49.948;9.208;2023-06-26T00:24:28;3.83;;;2.80;;
18090;SDS011;9172;49.948;9.208;2023-06-26T00:26:56;5.97;;;3.73;;
18090;SDS011;9172;49.948;9.208;2023-06-26T00:29:25;4.90;;;3.47;;
18090;SDS011;9172;49.948;9.208;2023-06-26T00:31:56;4.73;;;3.10;;
18090;SDS011;9172;49.948;9.208;2023-06-26T00:34:24;5.37;;;3.30;;
18090;SDS011;9172;49.948;9.208;2023-06-26T00:36:53;4.30;;;3.10;;
18090;SDS011;9172;49.948;9.208;2023-06-26T00:39:21;5.37;;;3.20;;
18090;SDS011;9172;49.948;9.208;2023-06-26T00:41:52;7.37;;;3.63;;
18090;SDS011;9172;49.948;9.208;2023-06-26T00:44:20;4.23;;;3.10;;
18090;SDS011;9172;49.948;9.208;2023-06-26T00:46:49;5.30;;;3.50;;
18090;SDS011;9172;49.948;9.208;2023-06-26T00:49:19;5.03;;;3.40;;
18090;SDS011;9172;49.948;9.208;2023-06-26T00:51:50;5.80;;;3.43;;
18090;SDS011;9172;49.948;9.208;2023-06-26T00:54:20;4.57;;;3.40;;
18090;SDS011;9172;49.948;9.208;2023-06-26T00:56:58;4.50;;;3.00;;
18090;SDS011;9172;49.948;9.208;2023-06-26T00:59:28;5.50;;;3.60;;
18090;SDS011;9172;49.948;9.208;2023-06-26T01:01:57;5.45;;;3.25;;
18090;SDS011;9172;49.948;9.208;2023-06-26T01:04:25;3.87;;;2.75;;
18090;SDS011;9172;49.948;9.208;2023-06-26T01:06:57;5.67;;;3.63;;
18090;SDS011;9172;49.948;9.208;2023-06-26T01:09:26;5.87;;;3.00;;
18090;SDS011;9172;49.948;9.208;2023-06-26T01:11:55;5.47;;;3.70;;
18090;SDS011;9172;49.948;9.208;2023-06-26T01:14:24;4.80;;;3.23;;
18090;SDS011;9172;49.948;9.208;2023-06-26T01:16:53;5.07;;;3.40;;
18090;SDS011;9172;49.948;9.208;2023-06-26T01:19:24;5.10;;;3.60;;
18090;SDS011;9172;49.948;9.208;2023-06-26T01:21:56;5.40;;;3.53;;
18090;SDS011;9172;49.948;9.208;2023-06-26T01:24:31;3.63;;;3.10;;
18090;SDS011;9172;49.948;9.208;2023-06-26T01:26:59;4.43;;;3.10;;
18090;SDS011;9172;49.948;9.208;2023-06-26T01:29:29;5.23;;;3.57;;
18090;SDS011;9172;49.948;9.208;2023-06-26T01:32:00;7.27;;;3.40;;
18090;SDS011;9172;49.948;9.208;2023-06-26T01:34:30;6.77;;;3.60;;
18090;SDS011;9172;49.948;9.208;2023-06-26T01:37:00;5.00;;;3.47;;
18090;SDS011;9172;49.948;9.208;2023-06-26T01:39:29;4.03;;;3.17;;
18090;SDS011;9172;49.948;9.208;2023-06-26T01:41:57;4.80;;;3.30;;
18090;SDS011;9172;49.948;9.208;2023-06-26T01:44:26;5.73;;;3.80;;
18090;SDS011;9172;49.948;9.208;2023-06-26T01:47:00;4.07;;;3.20;;
18090;SDS011;9172;49.948;9.208;2023-06-26T01:49:33;7.07;;;3.80;;
18090;SDS011;9172;49.948;9.208;2023-06-26T01:52:09;4.57;;;3.20;;
18090;SDS011;9172;49.948;9.208;2023-06-26T01:57:16;5.03;;;3.40;;
18090;SDS011;9172;49.948;9.208;2023-06-26T01:59:48;4.70;;;3.30;;
18090;SDS011;9172;49.948;9.208;2023-06-26T02:02:19;5.53;;;3.67;;
18090;SDS011;9172;49.948;9.208;2023-06-26T02:04:50;4.93;;;3.07;;
18090;SDS011;9172;49.948;9.208;2023-06-26T02:07:19;5.33;;;4.00;;
18090;SDS011;9172;49.948;9.208;2023-06-26T02:09:48;7.33;;;3.80;;
18090;SDS011;9172;49.948;9.208;2023-06-26T02:12:17;4.73;;;3.20;;
18090;SDS011;9172;49.948;9.208;2023-06-26T02:14:46;6.00;;;3.47;;
18090;SDS011;9172;49.948;9.208;2023-06-26T02:17:16;4.27;;;3.27;;
18090;SDS011;9172;49.948;9.208;2023-06-26T02:19:45;4.57;;;3.07;;
18090;SDS011;9172;49.948;9.208;2023-06-26T02:22:14;7.70;;;3.43;;
18090;SDS011;9172;49.948;9.208;2023-06-26T02:24:43;4.87;;;3.13;;
18090;SDS011;9172;49.948;9.208;2023-06-26T02:27:12;7.47;;;4.00;;
18090;SDS011;9172;49.948;9.208;2023-06-26T02:29:40;5.60;;;3.40;;
18090;SDS011;9172;49.948;9.208;2023-06-26T02:32:09;7.27;;;3.60;;
18090;SDS011;9172;49.948;9.208;2023-06-26T02:34:38;4.10;;;3.00;;
18090;SDS011;9172;49.948;9.208;2023-06-26T02:37:08;10.03;;;3.63;;
18090;SDS011;9172;49.948;9.208;2023-06-26T02:39:37;4.57;;;3.33;;
18090;SDS011;9172;49.948;9.208;2023-06-26T02:42:06;5.70;;;3.93;;
18090;SDS011;9172;49.948;9.208;2023-06-26T02:44:34;4.13;;;3.27;;
18090;SDS011;9172;49.948;9.208;2023-06-26T02:47:03;4.00;;;3.07;;
18090;SDS011;9172;49.948;9.208;2023-06-26T02:49:32;4.87;;;3.30;;
18090;SDS011;9172;49.948;9.208;2023-06-26T02:52:02;5.87;;;3.43;;
18090;SDS011;9172;49.948;9.208;2023-06-26T02:54:32;4.60;;;3.47;;
18090;SDS011;9172;49.948;9.208;2023-06-26T02:57:01;5.43;;;3.23;;
18090;SDS011;9172;49.948;9.208;2023-06-26T02:59:31;9.37;;;3.33;;
18090;SDS011;9172;49.948;9.208;2023-06-26T03:02:00;6.33;;;3.43;;
18090;SDS011;9172;49.948;9.208;2023-06-26T03:04:29;4.20;;;3.27;;
18090;SDS011;9172;49.948;9.208;2023-06-26T03:06:59;5.23;;;3.50;;
18090;SDS011;9172;49.948;9.208;2023-06-26T03:09:29;7.07;;;3.43;;
18090;SDS011;9172;49.948;9.208;2023-06-26T03:11:59;5.70;;;3.60;;
18090;SDS011;9172;49.948;9.208;2023-06-26T03:14:28;5.63;;;3.40;;
18090;SDS011;9172;49.948;9.208;2023-06-26T03:16:59;4.40;;;3.20;;
18090;SDS011;9172;49.948;9.208;2023-06-26T03:19:29;5.43;;;3.93;;
18090;SDS011;9172;49.948;9.208;2023-06-26T03:21:58;5.13;;;3.43;;
18090;SDS011;9172;49.948;9.208;2023-06-26T03:24:29;5.00;;;3.50;;
18090;SDS011;9172;49.948;9.208;2023-06-26T03:26:59;4.90;;;3.53;;
18090;SDS011;9172;49.948;9.208;2023-06-26T03:29:30;6.37;;;3.47;;
18090;SDS011;9172;49.948;9.208;2023-06-26T03:31:58;9.20;;;4.93;;
18090;SDS011;9172;49.948;9.208;2023-06-26T03:34:35;5.73;;;3.57;;
18090;SDS011;9172;49.948;9.208;2023-06-26T03:37:04;8.43;;;3.57;;
18090;SDS011;9172;49.948;9.208;2023-06-26T03:39:34;4.73;;;3.37;;
18090;SDS011;9172;49.948;9.208;2023-06-26T03:42:03;5.53;;;3.73;;
18090;SDS011;9172;49.948;9.208;2023-06-26T03:44:32;6.23;;;3.63;;
18090;SDS011;9172;49.948;9.208;2023-06-26T03:47:03;5.27;;;3.57;;
18090;SDS011;9172;49.948;9.208;2023-06-26T03:49:32;5.90;;;3.40;;
18090;SDS011;9172;49.948;9.208;2023-06-26T03:52:01;5.30;;;3.53;;
18090;SDS011;9172;49.948;9.208;2023-06-26T03:54:31;5.17;;;3.60;;
18090;SDS011;9172;49.948;9.208;2023-06-26T03:57:00;6.27;;;4.00;;
18090;SDS011;9172;49.948;9.208;2023-06-26T03:59:28;5.70;;;3.80;;
18090;SDS011;9172;49.948;9.208;2023-06-26T04:01:58;5.93;;;3.53;;
18090;SDS011;9172;49.948;9.208;2023-06-26T04:04:28;5.63;;;3.80;;
18090;SDS011;9172;49.948;9.208;2023-06-26T04:06:59;4.47;;;3.50;;
18090;SDS011;9172;49.948;9.208;2023-06-26T04:09:28;7.30;;;3.87;;
18090;SDS011;9172;49.948;9.208;2023-06-26T04:11:58;4.87;;;3.27;;
18090;SDS011;9172;49.948;9.208;2023-06-26T04:14:27;6.20;;;3.47;;
18090;SDS011;9172;49.948;9.208;2023-06-26T04:16:56;4.93;;;3.50;;
18090;SDS011;9172;49.948;9.208;2023-06-26T04:19:26;4.70;;;3.27;;
18090;SDS011;9172;49.948;9.208;2023-06-26T04:21:55;5.03;;;3.43;;
18090;SDS011;9172;49.948;9.208;2023-06-26T04:24:25;6.50;;;3.40;;
18090;SDS011;9172;49.948;9.208;2023-06-26T04:26:53;5.37;;;3.50;;
18090;SDS011;9172;49.948;9.208;2023-06-26T04:29:23;4.63;;;3.37;;
18090;SDS011;9172;49.948;9.208;2023-06-26T04:31:53;4.70;;;3.07;;
18090;SDS011;9172;49.948;9.208;2023-06-26T04:34:24;6.23;;;3.70;;
18090;SDS011;9172;49.948;9.208;2023-06-26T04:36:52;5.27;;;4.00;;
18090;SDS011;9172;49.948;9.208;2023-06-26T04:39:22;6.20;;;3.90;;
18090;SDS011;9172;49.948;9.208;2023-06-26T04:41:51;6.00;;;3.93;;
18090;SDS011;9172;49.948;9.208;2023-06-26T04:44:19;4.87;;;3.40;;
18090;SDS011;9172;49.948;9.208;2023-06-26T04:46:57;5.10;;;3.30;;
18090;SDS011;9172;49.948;9.208;2023-06-26T04:49:27;5.90;;;3.77;;
18090;SDS011;9172;49.948;9.208;2023-06-26T04:51:56;4.53;;;3.60;;
18090;SDS011;9172;49.948;9.208;2023-06-26T04:54:26;5.90;;;3.83;;
18090;SDS011;9172;49.948;9.208;2023-06-26T04:56:55;5.30;;;4.00;;
18090;SDS011;9172;49.948;9.208;2023-06-26T04:59:26;6.20;;;3.60;;
18090;SDS011;9172;49.948;9.208;2023-06-26T05:01:54;6.10;;;4.13;;
18090;SDS011;9172;49.948;9.208;2023-06-26T05:04:24;6.93;;;3.60;;
18090;SDS011;9172;49.948;9.208;2023-06-26T05:06:52;5.93;;;3.70;;
18090;SDS011;9172;49.948;9.208;2023-06-26T05:09:21;7.07;;;3.90;;
18090;SDS011;9172;49.948;9.208;2023-06-26T05:11:50;5.00;;;3.20;;
18090;SDS011;9172;49.948;9.208;2023-06-26T05:14:20;7.10;;;3.50;;
18090;SDS011;9172;49.948;9.208;2023-06-26T05:16:49;6.97;;;4.07;;
18090;SDS011;9172;49.948;9.208;2023-06-26T05:19:17;5.87;;;4.00;;
18090;SDS011;9172;49.948;9.208;2023-06-26T05:21:47;5.53;;;4.07;;
18090;SDS011;9172;49.948;9.208;2023-06-26T05:24:17;4.50;;;3.63;;
18090;SDS011;9172;49.948;9.208;2023-06-26T05:26:49;5.00;;;3.77;;
18090;SDS011;9172;49.948;9.208;2023-06-26T05:29:19;6.10;;;4.17;;
18090;SDS011;9172;49.948;9.208;2023-06-26T05:31:49;7.43;;;4.70;;
18090;SDS011;9172;49.948;9.208;2023-06-26T05:34:19;7.33;;;4.13;;
18090;SDS011;9172;49.948;9.208;2023-06-26T05:36:50;6.90;;;4.63;;
18090;SDS011;9172;49.948;9.208;2023-06-26T05:39:21;6.10;;;4.10;;
18090;SDS011;9172;49.948;9.208;2023-06-26T05:41:51;6.30;;;4.00;;
18090;SDS011;9172;49.948;9.208;2023-06-26T05:44:23;7.60;;;4.50;;
18090;SDS011;9172;49.948;9.208;2023-06-26T05:46:53;9.47;;;4.10;;
18090;SDS011;9172;49.948;9.208;2023-06-26T05:49:22;5.47;;;3.77;;
18090;SDS011;9172;49.948;9.208;2023-06-26T05:51:52;5.87;;;4.03;;
18090;SDS011;9172;49.948;9.208;2023-06-26T05:54:22;9.77;;;4.93;;
18090;SDS011;9172;49.948;9.208;2023-06-26T05:56:51;8.40;;;4.37;;
18090;SDS011;9172;49.948;9.208;2023-06-26T05:59:23;6.63;;;4.10;;
18090;SDS011;9172;49.948;9.208;2023-06-26T06:01:53;8.90;;;4.27;;
18090;SDS011;9172;49.948;9.208;2023-06-26T06:04:23;7.17;;;4.67;;
18090;SDS011;9172;49.948;9.208;2023-06-26T06:06:51;6.30;;;3.90;;
18090;SDS011;9172;49.948;9.208;2023-06-26T06:09:20;5.93;;;3.90;;
18090;SDS011;9172;49.948;9.208;2023-06-26T06:11:48;8.38;;;4.08;;
18090;SDS011;9172;49.948;9.208;2023-06-26T06:14:19;8.60;;;4.00;;
18090;SDS011;9172;49.948;9.208;2023-06-26T06:16:47;6.55;;;4.00;;
18090;SDS011;9172;49.948;9.208;2023-06-26T06:19:16;5.78;;;3.87;;
18090;SDS011;9172;49.948;9.208;2023-06-26T06:21:44;5.87;;;4.07;;
18090;SDS011;9172;49.948;9.208;2023-06-26T06:24:14;6.83;;;4.22;;
18090;SDS011;9172;49.948;9.208;2023-06-26T06:26:42;6.27;;;3.80;;
18090;SDS011;9172;49.948;9.208;2023-06-26T06:29:11;5.78;;;3.85;;
18090;SDS011;9172;49.948;9.208;2023-06-26T06:31:39;5.83;;;4.07;;
18090;SDS011;9172;49.948;9.208;2023-06-26T06:34:09;5.17;;;3.60;;
18090;SDS011;9172;49.948;9.208;2023-06-26T06:36:40;5.60;;;4.22;;
18090;SDS011;9172;49.948;9.208;2023-06-26T06:39:08;5.40;;;3.58;;
18090;SDS011;9172;49.948;9.208;2023-06-26T06:41:38;7.05;;;3.77;;
18090;SDS011;9172;49.948;9.208;2023-06-26T06:44:07;7.25;;;3.67;;
18090;SDS011;9172;49.948;9.208;2023-06-26T06:46:38;7.55;;;4.30;;
18090;SDS011;9172;49.948;9.208;2023-06-26T06:49:07;5.45;;;3.75;;
18090;SDS011;9172;49.948;9.208;2023-06-26T06:51:36;6.75;;;4.45;;
18090;SDS011;9172;49.948;9.208;2023-06-26T06:54:05;5.80;;;3.80;;
18090;SDS011;9172;49.948;9.208;2023-06-26T06:59:12;7.17;;;4.08;;
18090;SDS011;9172;49.948;9.208;2023-06-26T07:01:43;6.70;;;3.98;;
18090;SDS011;9172;49.948;9.208;2023-06-26T07:04:20;5.95;;;3.95;;
18090;SDS011;9172;49.948;9.208;2023-06-26T07:06:49;5.25;;;4.20;;
18090;SDS011;9172;49.948;9.208;2023-06-26T07:09:27;5.80;;;3.85;;
18090;SDS011;9172;49.948;9.208;2023-06-26T07:11:56;5.47;;;3.85;;
18090;SDS011;9172;49.948;9.208;2023-06-26T07:14:25;5.30;;;3.75;;
18090;SDS011;9172;49.948;9.208;2023-06-26T07:19:30;8.63;;;4.00;;
18090;SDS011;9172;49.948;9.208;2023-06-26T07:21:59;6.08;;;4.00;;
18090;SDS011;9172;49.948;9.208;2023-06-26T07:24:28;6.50;;;3.80;;
18090;SDS011;9172;49.948;9.208;2023-06-26T07:26:59;7.30;;;4.00;;
18090;SDS011;9172;49.948;9.208;2023-06-26T07:29:28;6.08;;;4.55;;
18090;SDS011;9172;49.948;9.208;2023-06-26T07:32:00;12.37;;;4.22;;
18090;SDS011;9172;49.948;9.208;2023-06-26T07:34:28;5.60;;;3.72;;
18090;SDS011;9172;49.948;9.208;2023-06-26T07:36:57;5.78;;;4.30;;
18090;SDS011;9172;49.948;9.208;2023-06-26T07:39:26;6.80;;;4.12;;
18090;SDS011;9172;49.948;9.208;2023-06-26T07:41:56;5.70;;;4.10;;
18090;SDS011;9172;49.948;9.208;2023-06-26T07:44:25;6.55;;;4.28;;
18090;SDS011;9172;49.948;9.208;2023-06-26T07:46:54;9.15;;;4.42;;
18090;SDS011;9172;49.948;9.208;2023-06-26T07:49:24;6.08;;;4.12;;
18090;SDS011;9172;49.948;9.208;2023-06-26T07:51:53;7.22;;;4.45;;
18090;SDS011;9172;49.948;9.208;2023-06-26T07:54:22;6.85;;;4.70;;
18090;SDS011;9172;49.948;9.208;2023-06-26T07:56:54;9.33;;;4.05;;
18090;SDS011;9172;49.948;9.208;2023-06-26T07:59:25;6.30;;;4.15;;
18090;SDS011;9172;49.948;9.208;2023-06-26T08:01:55;6.08;;;4.05;;
18090;SDS011;9172;49.948;9.208;2023-06-26T08:04:25;7.87;;;4.28;;
18090;SDS011;9172;49.948;9.208;2023-06-26T08:06:55;6.15;;;4.75;;
18090;SDS011;9172;49.948;9.208;2023-06-26T08:09:26;6.00;;;4.37;;
18090;SDS011;9172;49.948;9.208;2023-06-26T08:11:56;5.47;;;4.25;;
18090;SDS011;9172;49.948;9.208;2023-06-26T08:14:25;5.22;;;4.15;;
18090;SDS011;9172;49.948;9.208;2023-06-26T08:16:54;6.80;;;4.92;;
18090;SDS011;9172;49.948;9.208;2023-06-26T08:19:25;6.87;;;4.60;;
18090;SDS011;9172;49.948;9.208;2023-06-26T08:21:56;8.53;;;4.75;;
18090;SDS011;9172;49.948;9.208;2023-06-26T08:24:24;6.58;;;4.03;;
18090;SDS011;9172;49.948;9.208;2023-06-26T08:26:53;7.95;;;4.70;;
18090;SDS011;9172;49.948;9.208;2023-06-26T08:29:22;7.03;;;4.55;;
18090;SDS011;9172;49.948;9.208;2023-06-26T08:31:51;6.00;;;4.22;;
18090;SDS011;9172;49.948;9.208;2023-06-26T08:34:19;7.50;;;4.62;;
18090;SDS011;9172;49.948;9.208;2023-06-26T08:36:49;11.40;;;4.75;;
18090;SDS011;9172;49.948;9.208;2023-06-26T08:39:17;7.00;;;4.45;;
18090;SDS011;9172;49.948;9.208;2023-06-26T08:41:47;5.87;;;4.30;;
18090;SDS011;9172;49.948;9.208;2023-06-26T08:44:17;5.53;;;4.70;;
18090;SDS011;9172;49.948;9.208;2023-06-26T08:46:50;6.55;;;4.70;;
18090;SDS011;9172;49.948;9.208;2023-06-26T08:49:21;6.45;;;4.65;;
18090;SDS011;9172;49.948;9.208;2023-06-26T08:51:52;5.90;;;4.70;;
18090;SDS011;9172;49.948;9.208;2023-06-26T08:54:27;8.70;;;4.80;;
18090;SDS011;9172;49.948;9.208;2023-06-26T08:56:55;7.50;;;4.87;;
18090;SDS011;9172;49.948;9.208;2023-06-26T08:59:24;6.80;;;4.72;;
18090;SDS011;9172;49.948;9.208;2023-06-26T09:01:54;8.03;;;4.85;;
18090;SDS011;9172;49.948;9.208;2023-06-26T09:04:22;8.60;;;4.70;;
18090;SDS011;9172;49.948;9.208;2023-06-26T09:06:52;7.28;;;5.20;;
18090;SDS011;9172;49.948;9.208;2023-06-26T09:09:22;7.53;;;5.03;;
18090;SDS011;9172;49.948;9.208;2023-06-26T09:11:50;10.95;;;4.58;;
18090;SDS011;9172;49.948;9.208;2023-06-26T09:14:21;7.70;;;5.17;;
18090;SDS011;9172;49.948;9.208;2023-06-26T09:16:50;7.22;;;4.45;;
18090;SDS011;9172;49.948;9.208;2023-06-26T09:19:18;6.67;;;5.17;;
18090;SDS011;9172;49.948;9.208;2023-06-26T09:21:48;7.78;;;4.00;;
18090;SDS011;9172;49.948;9.208;2023-06-26T09:24:18;8.73;;;4.80;;
18090;SDS011;9172;49.948;9.208;2023-06-26T09:26:47;5.80;;;4.08;;
18090;SDS011;9172;49.948;9.208;2023-06-26T09:29:16;5.75;;;4.15;;
18090;SDS011;9172;49.948;9.208;2023-06-26T09:31:46;6.45;;;4.30;;
18090;SDS011;9172;49.948;9.208;2023-06-26T09:34:16;7.75;;;4.03;;
18090;SDS011;9172;49.948;9.208;2023-06-26T09:36:46;4.92;;;3.60;;
18090;SDS011;9172;49.948;9.208;2023-06-26T09:39:15;6.17;;;4.72;;
18090;SDS011;9172;49.948;9.208;2023-06-26T09:41:46;7.00;;;4.33;;
18090;SDS011;9172;49.948;9.208;2023-06-26T09:44:14;4.97;;;3.95;;
18090;SDS011;9172;49.948;9.208;2023-06-26T09:46:45;6.80;;;4.40;;
18090;SDS011;9172;49.948;9.208;2023-06-26T09:49:15;8.15;;;3.98;;
18090;SDS011;9172;49.948;9.208;2023-06-26T09:51:44;6.80;;;4.00;;
18090;SDS011;9172;49.948;9.208;2023-06-26T09:54:15;7.40;;;3.95;;
18090;SDS011;9172;49.948;9.208;2023-06-26T09:56:48;5.53;;;3.87;;
18090;SDS011;9172;49.948;9.208;2023-06-26T09:59:17;6.80;;;4.78;;
18090;SDS011;9172;49.948;9.208;2023-06-26T10:01:46;5.28;;;3.85;;
18090;SDS011;9172;49.948;9.208;2023-06-26T10:04:16;6.75;;;4.35;;
18090;SDS011;9172;49.948;9.208;2023-06-26T10:06:45;7.00;;;4.60;;
18090;SDS011;9172;49.948;9.208;2023-06-26T10:09:17;7.70;;;4.45;;
18090;SDS011;9172;49.948;9.208;2023-06-26T10:11:46;6.72;;;4.37;;
18090;SDS011;9172;49.948;9.208;2023-06-26T10:14:18;7.10;;;4.53;;
18090;SDS011;9172;49.948;9.208;2023-06-26T10:16:49;5.10;;;4.15;;
18090;SDS011;9172;49.948;9.208;2023-06-26T10:19:19;12.20;;;4.95;;
18090;SDS011;9172;49.948;9.208;2023-06-26T10:21:52;7.15;;;4.25;;
18090;SDS011;9172;49.948;9.208;2023-06-26T10:24:22;8.68;;;4.47;;
18090;SDS011;9172;49.948;9.208;2023-06-26T10:26:58;5.87;;;3.90;;
18090;SDS011;9172;49.948;9.208;2023-06-26T10:29:24;8.80;;;4.20;;
18090;SDS011;9172;49.948;9.208;2023-06-26T10:31:55;5.22;;;3.80;;
18090;SDS011;9172;49.948;9.208;2023-06-26T10:34:26;7.37;;;4.60;;
18090;SDS011;9172;49.948;9.208;2023-06-26T10:36:59;6.15;;;4.35;;
18090;SDS011;9172;49.948;9.208;2023-06-26T10:39:27;6.08;;;4.05;;
18090;SDS011;9172;49.948;9.208;2023-06-26T10:42:14;7.35;;;4.35;;
18090;SDS011;9172;49.948;9.208;2023-06-26T10:44:45;5.75;;;4.15;;
18090;SDS011;9172;49.948;9.208;2023-06-26T10:47:28;7.05;;;4.50;;
18090;SDS011;9172;49.948;9.208;2023-06-26T10:50:10;6.03;;;4.08;;
18090;SDS011;9172;49.948;9.208;2023-06-26T10:52:45;7.20;;;4.37;;
18090;SDS011;9172;49.948;9.208;2023-06-26T10:55:15;6.72;;;4.12;;
18090;SDS011;9172;49.948;9.208;2023-06-26T10:57:45;5.78;;;4.47;;
18090;SDS011;9172;49.948;9.208;2023-06-26T11:00:17;7.05;;;4.00;;
18090;SDS011;9172;49.948;9.208;2023-06-26T11:02:48;7.78;;;3.95;;
18090;SDS011;9172;49.948;9.208;2023-06-26T11:05:26;5.22;;;3.67;;
18090;SDS011;9172;49.948;9.208;2023-06-26T11:08:03;8.38;;;4.85;;
18090;SDS011;9172;49.948;9.208;2023-06-26T11:10:48;5.97;;;4.20;;
18090;SDS011;9172;49.948;9.208;2023-06-26T11:13:19;7.12;;;4.10;;
18090;SDS011;9172;49.948;9.208;2023-06-26T11:15:48;8.08;;;4.03;;
18090;SDS011;9172;49.948;9.208;2023-06-26T11:18:19;6.67;;;4.67;;
18090;SDS011;9172;49.948;9.208;2023-06-26T11:20:50;7.12;;;4.10;;
18090;SDS011;9172;49.948;9.208;2023-06-26T11:23:19;7.78;;;4.20;;
18090;SDS011;9172;49.948;9.208;2023-06-26T11:25:50;6.85;;;4.30;;
18090;SDS011;9172;49.948;9.208;2023-06-26T11:28:21;6.33;;;4.33;;
18090;SDS011;9172;49.948;9.208;2023-06-26T11:30:50;6.78;;;4.33;;
18090;SDS011;9172;49.948;9.208;2023-06-26T11:33:19;7.37;;;4.37;;
18090;SDS011;9172;49.948;9.208;2023-06-26T11:35:51;8.25;;;4.05;;
18090;SDS011;9172;49.948;9.208;2023-06-26T11:38:20;7.78;;;4.22;;
18090;SDS011;9172;49.948;9.208;2023-06-26T11:40:49;5.62;;;4.12;;
18090;SDS011;9172;49.948;9.208;2023-06-26T11:43:18;6.28;;;4.42;;
18090;SDS011;9172;49.948;9.208;2023-06-26T11:45:49;6.08;;;4.60;;
18090;SDS011;9172;49.948;9.208;2023-06-26T11:48:18;9.98;;;4.50;;
18090;SDS011;9172;49.948;9.208;2023-06-26T11:50:50;9.28;;;4.95;;
18090;SDS011;9172;49.948;9.208;2023-06-26T11:53:19;8.20;;;4.40;;
18090;SDS011;9172;49.948;9.208;2023-06-26T11:55:48;8.23;;;4.22;;
18090;SDS011;9172;49.948;9.208;2023-06-26T11:58:17;6.75;;;4.62;;
18090;SDS011;9172;49.948;9.208;2023-06-26T12:00:48;6.50;;;4.70;;
18090;SDS011;9172;49.948;9.208;2023-06-26T12:03:16;8.65;;;4.35;;
18090;SDS011;9172;49.948;9.208;2023-06-26T12:05:46;5.50;;;4.05;;
18090;SDS011;9172;49.948;9.208;2023-06-26T12:08:16;6.50;;;4.62;;
18090;SDS011;9172;49.948;9.208;2023-06-26T12:10:46;7.25;;;4.53;;
18090;SDS011;9172;49.948;9.208;2023-06-26T12:13:16;9.18;;;4.40;;
18090;SDS011;9172;49.948;9.208;2023-06-26T12:15:45;5.58;;;4.28;;
18090;SDS011;9172;49.948;9.208;2023-06-26T12:18:15;7.85;;;4.40;;
18090;SDS011;9172;49.948;9.208;2023-06-26T12:20:44;6.12;;;4.00;;
18090;SDS011;9172;49.948;9.208;2023-06-26T12:23:13;7.67;;;4.53;;
18090;SDS011;9172;49.948;9.208;2023-06-26T12:25:41;6.67;;;4.35;;
18090;SDS011;9172;49.948;9.208;2023-06-26T12:28:17;6.58;;;4.30;;
18090;SDS011;9172;49.948;9.208;2023-06-26T12:30:46;9.03;;;3.95;;
18090;SDS011;9172;49.948;9.208;2023-06-26T12:33:16;6.40;;;4.65;;
18090;SDS011;9172;49.948;9.208;2023-06-26T12:35:45;7.37;;;4.10;;
18090;SDS011;9172;49.948;9.208;2023-06-26T12:38:14;6.42;;;4.45;;
18090;SDS011;9172;49.948;9.208;2023-06-26T12:40:45;11.00;;;4.45;;
18090;SDS011;9172;49.948;9.208;2023-06-26T12:43:22;6.22;;;3.92;;
18090;SDS011;9172;49.948;9.208;2023-06-26T12:45:54;8.20;;;3.65;;
18090;SDS011;9172;49.948;9.208;2023-06-26T12:48:35;5.58;;;3.83;;
18090;SDS011;9172;49.948;9.208;2023-06-26T12:51:09;10.63;;;4.15;;
18090;SDS011;9172;49.948;9.208;2023-06-26T12:53:38;9.40;;;4.33;;
18090;SDS011;9172;49.948;9.208;2023-06-26T12:56:08;4.90;;;3.62;;
18090;SDS011;9172;49.948;9.208;2023-06-26T12:58:37;7.03;;;4.00;;
18090;SDS011;9172;49.948;9.208;2023-06-26T13:01:07;6.97;;;4.25;;
18090;SDS011;9172;49.948;9.208;2023-06-26T13:03:37;7.17;;;4.15;;
18090;SDS011;9172;49.948;9.208;2023-06-26T13:06:07;5.17;;;3.85;;
18090;SDS011;9172;49.948;9.208;2023-06-26T13:08:35;10.58;;;4.53;;
18090;SDS011;9172;49.948;9.208;2023-06-26T13:11:05;6.72;;;4.22;;
18090;SDS011;9172;49.948;9.208;2023-06-26T13:13:35;7.20;;;3.70;;
18090;SDS011;9172;49.948;9.208;2023-06-26T13:16:05;9.63;;;4.20;;
18090;SDS011;9172;49.948;9.208;2023-06-26T13:18:34;7.45;;;4.05;;
18090;SDS011;9172;49.948;9.208;2023-06-26T13:21:03;6.92;;;4.10;;
18090;SDS011;9172;49.948;9.208;2023-06-26T13:23:32;11.08;;;3.92;;
18090;SDS011;9172;49.948;9.208;2023-06-26T13:26:01;7.15;;;3.92;;
18090;SDS011;9172;49.948;9.208;2023-06-26T13:28:31;7.17;;;3.80;;
18090;SDS011;9172;49.948;9.208;2023-06-26T13:31:00;8.05;;;4.10;;
18090;SDS011;9172;49.948;9.208;2023-06-26T13:33:30;7.83;;;4.05;;
18090;SDS011;9172;49.948;9.208;2023-06-26T13:35:58;5.15;;;4.08;;
18090;SDS011;9172;49.948;9.208;2023-06-26T13:38:29;7.45;;;4.40;;
18090;SDS011;9172;49.948;9.208;2023-06-26T13:40:59;5.55;;;4.12;;
18090;SDS011;9172;49.948;9.208;2023-06-26T13:43:29;6.90;;;4.72;;
18090;SDS011;9172;49.948;9.208;2023-06-26T13:45:59;7.80;;;4.50;;
18090;SDS011;9172;49.948;9.208;2023-06-26T13:48:29;5.58;;;4.12;;
18090;SDS011;9172;49.948;9.208;2023-06-26T13:50:58;16.17;;;5.30;;
18090;SDS011;9172;49.948;9.208;2023-06-26T13:53:28;8.10;;;4.42;;
18090;SDS011;9172;49.948;9.208;2023-06-26T13:55:56;8.80;;;4.40;;
18090;SDS011;9172;49.948;9.208;2023-06-26T13:58:25;8.35;;;4.12;;
18090;SDS011;9172;49.948;9.208;2023-06-26T14:00:55;7.80;;;4.15;;
18090;SDS011;9172;49.948;9.208;2023-06-26T14:03:25;9.68;;;4.42;;
18090;SDS011;9172;49.948;9.208;2023-06-26T14:05:55;10.90;;;5.12;;
18090;SDS011;9172;49.948;9.208;2023-06-26T14:08:23;11.70;;;4.47;;
18090;SDS011;9172;49.948;9.208;2023-06-26T14:10:52;10.60;;;4.08;;
18090;SDS011;9172;49.948;9.208;2023-06-26T14:13:21;10.18;;;4.70;;
18090;SDS011;9172;49.948;9.208;2023-06-26T14:15:50;7.80;;;4.00;;
18090;SDS011;9172;49.948;9.208;2023-06-26T14:18:19;6.78;;;4.55;;
18090;SDS011;9172;49.948;9.208;2023-06-26T14:20:50;5.90;;;3.75;;
18090;SDS011;9172;49.948;9.208;2023-06-26T14:23:19;5.40;;;4.03;;
18090;SDS011;9172;49.948;9.208;2023-06-26T14:25:49;5.42;;;3.95;;
18090;SDS011;9172;49.948;9.208;2023-06-26T14:28:18;12.90;;;5.12;;
18090;SDS011;9172;49.948;9.208;2023-06-26T14:30:47;6.50;;;3.87;;
18090;SDS011;9172;49.948;9.208;2023-06-26T14:33:15;9.08;;;4.08;;
18090;SDS011;9172;49.948;9.208;2023-06-26T14:35:44;7.90;;;4.42;;
18090;SDS011;9172;49.948;9.208;2023-06-26T14:38:12;12.18;;;4.08;;
18090;SDS011;9172;49.948;9.208;2023-06-26T14:40:42;6.35;;;4.03;;
18090;SDS011;9172;49.948;9.208;2023-06-26T14:43:10;10.38;;;3.98;;
18090;SDS011;9172;49.948;9.208;2023-06-26T14:45:39;7.08;;;4.08;;
18090;SDS011;9172;49.948;9.208;2023-06-26T14:48:09;4.97;;;3.40;;
18090;SDS011;9172;49.948;9.208;2023-06-26T14:50:37;6.28;;;3.70;;
18090;SDS011;9172;49.948;9.208;2023-06-26T14:53:05;8.55;;;4.08;;
18090;SDS011;9172;49.948;9.208;2023-06-26T14:55:34;7.80;;;4.03;;
18090;SDS011;9172;49.948;9.208;2023-06-26T14:58:03;6.55;;;3.67;;
18090;SDS011;9172;49.948;9.208;2023-06-26T15:00:32;8.30;;;3.77;;
18090;SDS011;9172;49.948;9.208;2023-06-26T15:03:00;5.80;;;3.55;;
18090;SDS011;9172;49.948;9.208;2023-06-26T15:05:29;6.47;;;3.15;;
18090;SDS011;9172;49.948;9.208;2023-06-26T15:07:58;4.58;;;3.37;;
18090;SDS011;9172;49.948;9.208;2023-06-26T15:10:28;5.85;;;3.35;;
18090;SDS011;9172;49.948;9.208;2023-06-26T15:12:57;5.33;;;3.33;;
18090;SDS011;9172;49.948;9.208;2023-06-26T15:15:27;10.40;;;3.55;;
18090;SDS011;9172;49.948;9.208;2023-06-26T15:17:55;5.53;;;3.72;;
18090;SDS011;9172;49.948;9.208;2023-06-26T15:20:26;5.22;;;3.10;;
18090;SDS011;9172;49.948;9.208;2023-06-26T15:22:56;5.65;;;2.80;;
18090;SDS011;9172;49.948;9.208;2023-06-26T15:25:24;8.83;;;3.08;;